sensor_id;sensor_type;location;lat;lon;timestamp;pressure;altitude;pressure_sealevel;temperature;humidity
63808;BME280;49961;43.970;22.868;2023-08-06T00:00:35;100163.50;;;20.09;100.00
63808;BME280;49961;43.970;22.868;2023-08-06T00:01:36;100190.66;;;20.34;100.00
63808;BME280;49961;43.970;22.868;2023-08-06T00:02:36;100103.84;;;19.83;100.00
63808;BME280;49961;43.970;22.868;2023-08-06T00:03:36;100177.84;;;20.39;100.00
63808;BME280;49961;43.970;22.868;2023-08-06T00:04:37;100184.25;;;20.45;100.00
63808;BME280;49961;43.970;22.868;2023-08-06T00:05:41;100154.03;;;20.18;100.00
63808;BME280;49961;43.970;22.868;2023-08-06T00:06:42;100201.41;;;20.47;100.00
63808;BME280;49961;43.970;22.868;2023-08-06T00:07:42;100194.75;;;20.50;100.00
63808;BME280;49961;43.970;22.868;2023-08-06T00:08:42;100198.34;;;20.50;100.00
63808;BME280;49961;43.970;22.868;2023-08-06T00:09:43;100189.91;;;20.50;100.00
63808;BME280;49961;43.970;22.868;2023-08-06T00:10:43;100188.88;;;20.48;100.00
63808;BME280;49961;43.970;22.868;2023-08-06T00:11:44;100188.88;;;20.48;100.00
63808;BME280;49961;43.970;22.868;2023-08-06T00:12:46;100142.25;;;20.14;100.00
63808;BME280;49961;43.970;22.868;2023-08-06T00:13:47;100179.91;;;20.44;100.00
63808;BME280;49961;43.970;22.868;2023-08-06T00:14:51;100181.72;;;20.47;100.00
63808;BME280;49961;43.970;22.868;2023-08-06T00:15:51;100183.50;;;20.55;100.00
63808;BME280;49961;43.970;22.868;2023-08-06T00:16:52;100184.53;;;20.58;100.00
63808;BME280;49961;43.970;22.868;2023-08-06T00:17:52;100161.25;;;20.41;100.00
63808;BME280;49961;43.970;22.868;2023-08-06T00:18:53;100184.25;;;20.56;100.00
63808;BME280;49961;43.970;22.868;2023-08-06T00:19:53;100086.72;;;19.98;100.00
63808;BME280;49961;43.970;22.868;2023-08-06T00:20:53;100185.53;;;20.66;100.00
63808;BME280;49961;43.970;22.868;2023-08-06T00:21:54;100189.38;;;20.68;100.00
63808;BME280;49961;43.970;22.868;2023-08-06T00:22:54;100196.06;;;20.76;100.00
63808;BME280;49961;43.970;22.868;2023-08-06T00:23:55;100210.66;;;20.80;100.00
63808;BME280;49961;43.970;22.868;2023-08-06T00:24:55;100208.34;;;20.79;100.00
63808;BME280;49961;43.970;22.868;2023-08-06T00:25:57;100211.94;;;20.79;100.00
63808;BME280;49961;43.970;22.868;2023-08-06T00:26:58;100158.44;;;20.52;100.00
63808;BME280;49961;43.970;22.868;2023-08-06T00:27:59;100190.66;;;20.78;100.00
63808;BME280;49961;43.970;22.868;2023-08-06T00:28:59;100207.06;;;20.85;100.00
63808;BME280;49961;43.970;22.868;2023-08-06T00:29:59;100199.16;;;20.89;100.00
63808;BME280;49961;43.970;22.868;2023-08-06T00:31:00;100204.00;;;20.94;100.00
63808;BME280;49961;43.970;22.868;2023-08-06T00:32:00;100202.47;;;20.99;100.00
63808;BME280;49961;43.970;22.868;2023-08-06T00:33:01;100206.31;;;21.01;100.00
63808;BME280;49961;43.970;22.868;2023-08-06T00:34:01;100200.91;;;21.03;100.00
63808;BME280;49961;43.970;22.868;2023-08-06T00:35:01;100179.19;;;20.93;100.00
63808;BME280;49961;43.970;22.868;2023-08-06T00:36:03;100196.31;;;21.06;100.00
63808;BME280;49961;43.970;22.868;2023-08-06T00:37:03;100180.94;;;20.96;100.00
63808;BME280;49961;43.970;22.868;2023-08-06T00:38:04;100208.34;;;21.12;100.00
63808;BME280;49961;43.970;22.868;2023-08-06T00:39:04;100168.94;;;20.95;100.00
63808;BME280;49961;43.970;22.868;2023-08-06T00:40:07;100189.38;;;21.12;100.00
63808;BME280;49961;43.970;22.868;2023-08-06T00:41:08;100177.38;;;21.01;100.00
63808;BME280;49961;43.970;22.868;2023-08-06T00:42:09;100148.44;;;20.84;100.00
63808;BME280;49961;43.970;22.868;2023-08-06T00:43:10;100107.22;;;20.75;100.00
63808;BME280;49961;43.970;22.868;2023-08-06T00:44:10;100079.09;;;20.64;100.00
63808;BME280;49961;43.970;22.868;2023-08-06T00:45:11;100041.22;;;20.49;100.00
63808;BME280;49961;43.970;22.868;2023-08-06T00:46:11;100036.38;;;20.44;100.00
63808;BME280;49961;43.970;22.868;2023-08-06T00:47:12;100028.97;;;20.35;100.00
63808;BME280;49961;43.970;22.868;2023-08-06T00:48:12;100012.59;;;20.17;100.00
63808;BME280;49961;43.970;22.868;2023-08-06T00:49:13;100038.97;;;20.25;100.00
63808;BME280;49961;43.970;22.868;2023-08-06T00:50:14;100046.63;;;20.25;100.00
63808;BME280;49961;43.970;22.868;2023-08-06T00:51:15;100070.41;;;20.35;100.00
63808;BME280;49961;43.970;22.868;2023-08-06T00:52:15;100099.56;;;20.43;100.00
63808;BME280;49961;43.970;22.868;2023-08-06T00:53:16;100069.66;;;20.18;100.00
63808;BME280;49961;43.970;22.868;2023-08-06T00:54:17;100127.22;;;20.55;100.00
63808;BME280;49961;43.970;22.868;2023-08-06T00:55:17;100113.63;;;20.65;100.00
63808;BME280;49961;43.970;22.868;2023-08-06T00:56:18;100110.81;;;20.65;100.00
63808;BME280;49961;43.970;22.868;2023-08-06T00:57:20;100064.25;;;20.20;100.00
63808;BME280;49961;43.970;22.868;2023-08-06T00:58:22;100129.78;;;20.64;100.00
63808;BME280;49961;43.970;22.868;2023-08-06T00:59:23;100082.97;;;20.39;100.00
63808;BME280;49961;43.970;22.868;2023-08-06T01:00:24;100108.78;;;20.38;100.00
63808;BME280;49961;43.970;22.868;2023-08-06T01:01:25;100183.50;;;20.77;100.00
63808;BME280;49961;43.970;22.868;2023-08-06T01:02:25;100177.38;;;20.79;100.00
63808;BME280;49961;43.970;22.868;2023-08-06T01:03:26;100139.50;;;20.58;100.00
63808;BME280;49961;43.970;22.868;2023-08-06T01:04:26;100157.66;;;20.73;100.00
63808;BME280;49961;43.970;22.868;2023-08-06T01:05:26;100156.91;;;20.73;100.00
63808;BME280;49961;43.970;22.868;2023-08-06T01:11:12;100142.31;;;20.69;100.00
63808;BME280;49961;43.970;22.868;2023-08-06T01:15:55;100188.63;;;20.68;100.00
63808;BME280;49961;43.970;22.868;2023-08-06T01:16:58;100112.09;;;20.36;100.00
63808;BME280;49961;43.970;22.868;2023-08-06T01:17:59;100143.31;;;20.71;100.00
63808;BME280;49961;43.970;22.868;2023-08-06T01:19:00;100148.16;;;20.71;100.00
63808;BME280;49961;43.970;22.868;2023-08-06T01:20:00;100172.50;;;20.74;100.00
63808;BME280;49961;43.970;22.868;2023-08-06T01:21:01;100131.28;;;20.32;100.00
63808;BME280;49961;43.970;22.868;2023-08-06T01:22:01;100215.25;;;20.83;100.00
63808;BME280;49961;43.970;22.868;2023-08-06T01:23:02;100159.19;;;20.52;100.00
63808;BME280;49961;43.970;22.868;2023-08-06T01:24:02;100192.72;;;20.89;100.00
63808;BME280;49961;43.970;22.868;2023-08-06T01:25:03;100201.44;;;20.96;100.00
63808;BME280;49961;43.970;22.868;2023-08-06T01:27:27;100192.22;;;21.01;100.00
63808;BME280;49961;43.970;22.868;2023-08-06T01:31:04;100164.06;;;20.79;100.00
63808;BME280;49961;43.970;22.868;2023-08-06T01:32:10;100215.00;;;21.14;100.00
63808;BME280;49961;43.970;22.868;2023-08-06T01:33:16;100226.03;;;21.18;100.00
63808;BME280;49961;43.970;22.868;2023-08-06T01:34:24;100230.09;;;21.22;100.00
63808;BME280;49961;43.970;22.868;2023-08-06T01:35:27;100237.03;;;21.16;100.00
63808;BME280;49961;43.970;22.868;2023-08-06T01:36:30;100232.16;;;21.16;100.00
63808;BME280;49961;43.970;22.868;2023-08-06T01:37:31;100227.78;;;21.21;100.00
63808;BME280;49961;43.970;22.868;2023-08-06T01:38:31;100230.09;;;21.22;100.00
63808;BME280;49961;43.970;22.868;2023-08-06T01:39:35;100239.59;;;21.30;100.00
63808;BME280;49961;43.970;22.868;2023-08-06T01:40:35;100222.69;;;21.30;100.00
63808;BME280;49961;43.970;22.868;2023-08-06T01:41:36;100228.03;;;21.28;100.00
63808;BME280;49961;43.970;22.868;2023-08-06T01:42:36;100221.66;;;21.28;100.00
63808;BME280;49961;43.970;22.868;2023-08-06T01:43:37;100199.88;;;21.17;100.00
63808;BME280;49961;43.970;22.868;2023-08-06T01:44:37;100220.38;;;21.29;100.00
63808;BME280;49961;43.970;22.868;2023-08-06T01:45:38;100224.69;;;21.41;100.00
63808;BME280;49961;43.970;22.868;2023-08-06T01:46:38;100220.06;;;21.43;100.00
63808;BME280;49961;43.970;22.868;2023-08-06T01:47:39;100217.75;;;21.47;100.00
63808;BME280;49961;43.970;22.868;2023-08-06T01:48:39;100208.78;;;21.49;100.00
63808;BME280;49961;43.970;22.868;2023-08-06T01:49:40;100207.00;;;21.51;100.00
63808;BME280;49961;43.970;22.868;2023-08-06T01:50:40;100199.56;;;21.54;100.00
63808;BME280;49961;43.970;22.868;2023-08-06T01:51:40;100203.63;;;21.53;100.00
63808;BME280;49961;43.970;22.868;2023-08-06T01:52:41;100199.28;;;21.57;100.00
63808;BME280;49961;43.970;22.868;2023-08-06T01:53:41;100129.16;;;21.21;100.00
63808;BME280;49961;43.970;22.868;2023-08-06T01:54:42;100191.56;;;21.58;100.00
63808;BME280;49961;43.970;22.868;2023-08-06T01:55:47;100134.28;;;21.28;100.00
63808;BME280;49961;43.970;22.868;2023-08-06T01:56:48;100186.94;;;21.60;100.00
63808;BME280;49961;43.970;22.868;2023-08-06T01:57:48;100173.63;;;21.61;100.00
63808;BME280;49961;43.970;22.868;2023-08-06T01:58:49;100109.97;;;21.19;100.00
63808;BME280;49961;43.970;22.868;2023-08-06T01:59:49;100144.44;;;21.53;100.00
63808;BME280;49961;43.970;22.868;2023-08-06T02:00:49;100149.81;;;21.51;100.00
63808;BME280;49961;43.970;22.868;2023-08-06T02:01:50;100116.03;;;21.40;100.00
63808;BME280;49961;43.970;22.868;2023-08-06T02:02:50;100140.34;;;21.54;100.00
63808;BME280;49961;43.970;22.868;2023-08-06T02:03:51;100130.59;;;21.55;100.00
63808;BME280;49961;43.970;22.868;2023-08-06T02:04:51;100125.47;;;21.53;100.00
63808;BME280;49961;43.970;22.868;2023-08-06T02:05:51;100116.72;;;21.57;100.00
63808;BME280;49961;43.970;22.868;2023-08-06T02:06:52;100044.91;;;21.17;100.00
63808;BME280;49961;43.970;22.868;2023-08-06T02:07:52;100111.59;;;21.61;100.00
63808;BME280;49961;43.970;22.868;2023-08-06T02:08:53;100081.78;;;21.25;100.00
63808;BME280;49961;43.970;22.868;2023-08-06T02:09:53;100132.63;;;21.54;100.00
63808;BME280;49961;43.970;22.868;2023-08-06T02:10:53;100150.84;;;21.59;100.00
63808;BME280;49961;43.970;22.868;2023-08-06T02:11:54;100154.16;;;21.57;100.00
63808;BME280;49961;43.970;22.868;2023-08-06T02:12:54;100138.78;;;21.58;100.00
63808;BME280;49961;43.970;22.868;2023-08-06T02:13:55;100130.09;;;21.56;100.00
63808;BME280;49961;43.970;22.868;2023-08-06T02:14:55;100127.78;;;21.55;100.00
63808;BME280;49961;43.970;22.868;2023-08-06T02:15:55;100020.41;;;20.85;100.00
63808;BME280;49961;43.970;22.868;2023-08-06T02:16:56;100138.00;;;21.58;100.00
63808;BME280;49961;43.970;22.868;2023-08-06T02:17:56;100144.94;;;21.57;100.00
63808;BME280;49961;43.970;22.868;2023-08-06T02:18:57;100098.16;;;21.26;100.00
63808;BME280;49961;43.970;22.868;2023-08-06T02:19:57;100143.63;;;21.63;100.00
63808;BME280;49961;43.970;22.868;2023-08-06T02:20:58;100142.34;;;21.64;100.00
63808;BME280;49961;43.970;22.868;2023-08-06T02:21:59;100141.81;;;21.66;100.00
63808;BME280;49961;43.970;22.868;2023-08-06T02:22:59;100071.78;;;21.24;100.00
63808;BME280;49961;43.970;22.868;2023-08-06T02:24:00;100134.41;;;21.68;100.00
63808;BME280;49961;43.970;22.868;2023-08-06T02:25:01;100129.25;;;21.67;100.00
63808;BME280;49961;43.970;22.868;2023-08-06T02:26:03;100131.31;;;21.66;100.00
63808;BME280;49961;43.970;22.868;2023-08-06T02:27:03;100130.31;;;21.64;100.00
63808;BME280;49961;43.970;22.868;2023-08-06T02:28:04;100122.66;;;21.53;100.00
63808;BME280;49961;43.970;22.868;2023-08-06T02:29:04;100125.19;;;21.62;100.00
63808;BME280;49961;43.970;22.868;2023-08-06T02:30:05;100136.19;;;21.60;100.00
63808;BME280;49961;43.970;22.868;2023-08-06T02:31:06;100140.28;;;21.65;100.00
63808;BME280;49961;43.970;22.868;2023-08-06T02:32:07;100142.84;;;21.63;100.00
63808;BME280;49961;43.970;22.868;2023-08-06T02:33:07;100112.16;;;21.48;100.00
63808;BME280;49961;43.970;22.868;2023-08-06T02:34:08;100116.00;;;21.51;100.00
63808;BME280;49961;43.970;22.868;2023-08-06T02:35:08;100125.47;;;21.53;100.00
63808;BME280;49961;43.970;22.868;2023-08-06T02:36:09;100133.66;;;21.57;100.00
63808;BME280;49961;43.970;22.868;2023-08-06T02:37:09;100137.53;;;21.54;100.00
63808;BME280;49961;43.970;22.868;2023-08-06T02:38:09;100091.75;;;21.26;100.00
63808;BME280;49961;43.970;22.868;2023-08-06T02:39:10;100140.31;;;21.59;100.00
63808;BME280;49961;43.970;22.868;2023-08-06T02:40:10;100134.66;;;21.59;100.00
63808;BME280;49961;43.970;22.868;2023-08-06T02:41:11;100135.69;;;21.62;100.00
63808;BME280;49961;43.970;22.868;2023-08-06T02:42:11;100128.22;;;21.64;100.00
63808;BME280;49961;43.970;22.868;2023-08-06T02:43:12;100116.44;;;21.66;100.00
63808;BME280;49961;43.970;22.868;2023-08-06T02:44:13;100100.09;;;21.59;100.00
63808;BME280;49961;43.970;22.868;2023-08-06T02:45:13;100059.44;;;21.32;100.00
63808;BME280;49961;43.970;22.868;2023-08-06T02:46:14;100097.22;;;21.70;100.00
63808;BME280;49961;43.970;22.868;2023-08-06T02:47:14;100101.56;;;21.65;100.00
63808;BME280;49961;43.970;22.868;2023-08-06T02:48:14;100100.81;;;21.65;100.00
63808;BME280;49961;43.970;22.868;2023-08-06T02:49:15;100068.88;;;21.46;100.00
63808;BME280;49961;43.970;22.868;2023-08-06T02:50:15;100100.31;;;21.66;100.00
63808;BME280;49961;43.970;22.868;2023-08-06T02:51:16;100100.31;;;21.66;100.00
63808;BME280;49961;43.970;22.868;2023-08-06T02:52:16;100076.53;;;21.51;100.00
63808;BME280;49961;43.970;22.868;2023-08-06T02:53:17;100082.09;;;21.62;100.00
63808;BME280;49961;43.970;22.868;2023-08-06T02:54:18;100075.94;;;21.63;100.00
63808;BME280;49961;43.970;22.868;2023-08-06T02:55:18;100075.66;;;21.67;100.00
63808;BME280;49961;43.970;22.868;2023-08-06T02:56:19;100032.25;;;21.40;100.00
63808;BME280;49961;43.970;22.868;2023-08-06T02:57:19;100051.16;;;21.51;100.00
63808;BME280;49961;43.970;22.868;2023-08-06T02:58:20;100076.97;;;21.71;100.00
63808;BME280;49961;43.970;22.868;2023-08-06T02:59:23;100075.91;;;21.74;100.00
63808;BME280;49961;43.970;22.868;2023-08-06T03:00:23;100080.25;;;21.75;100.00
63808;BME280;49961;43.970;22.868;2023-08-06T03:01:24;100072.38;;;21.68;100.00
63808;BME280;49961;43.970;22.868;2023-08-06T03:02:26;100068.50;;;21.71;100.00
63808;BME280;49961;43.970;22.868;2023-08-06T03:03:27;100072.38;;;21.68;100.00
63808;BME280;49961;43.970;22.868;2023-08-06T03:04:27;100067.50;;;21.69;100.00
63808;BME280;49961;43.970;22.868;2023-08-06T03:05:27;100064.38;;;21.67;100.00
63808;BME280;49961;43.970;22.868;2023-08-06T03:06:28;100020.78;;;21.33;100.00
63808;BME280;49961;43.970;22.868;2023-08-06T03:07:28;100079.53;;;21.69;100.00
63808;BME280;49961;43.970;22.868;2023-08-06T03:08:29;100071.31;;;21.66;100.00
63808;BME280;49961;43.970;22.868;2023-08-06T03:09:30;100027.41;;;21.35;100.00
63808;BME280;49961;43.970;22.868;2023-08-06T03:10:30;100075.97;;;21.69;100.00
63808;BME280;49961;43.970;22.868;2023-08-06T03:11:30;100064.66;;;21.63;100.00
63808;BME280;49961;43.970;22.868;2023-08-06T03:12:31;100023.06;;;21.34;100.00
63808;BME280;49961;43.970;22.868;2023-08-06T03:13:31;100053.19;;;21.50;100.00
63808;BME280;49961;43.970;22.868;2023-08-06T03:14:32;100081.59;;;21.69;100.00
63808;BME280;49961;43.970;22.868;2023-08-06T03:15:32;100068.25;;;21.69;100.00
63808;BME280;49961;43.970;22.868;2023-08-06T03:16:32;100070.31;;;21.69;100.00
63808;BME280;49961;43.970;22.868;2023-08-06T03:17:33;100054.16;;;21.69;100.00
63808;BME280;49961;43.970;22.868;2023-08-06T03:18:33;100053.88;;;21.67;100.00
63808;BME280;49961;43.970;22.868;2023-08-06T03:19:34;100056.44;;;21.65;100.00
63808;BME280;49961;43.970;22.868;2023-08-06T03:20:34;100031.41;;;21.56;100.00
63808;BME280;49961;43.970;22.868;2023-08-06T03:21:34;100036.78;;;21.54;100.00
63808;BME280;49961;43.970;22.868;2023-08-06T03:22:35;100057.22;;;21.71;100.00
63808;BME280;49961;43.970;22.868;2023-08-06T03:23:35;99994.66;;;21.27;100.00
63808;BME280;49961;43.970;22.868;2023-08-06T03:24:36;100065.94;;;21.73;100.00
63808;BME280;49961;43.970;22.868;2023-08-06T03:25:36;100070.03;;;21.72;100.00
63808;BME280;49961;43.970;22.868;2023-08-06T03:26:37;100078.22;;;21.70;100.00
63808;BME280;49961;43.970;22.868;2023-08-06T03:27:37;100074.16;;;21.71;100.00
63808;BME280;49961;43.970;22.868;2023-08-06T03:28:37;100070.56;;;21.71;100.00
63808;BME280;49961;43.970;22.868;2023-08-06T03:29:38;100076.44;;;21.67;100.00
63808;BME280;49961;43.970;22.868;2023-08-06T03:30:38;100051.66;;;21.55;100.00
63808;BME280;49961;43.970;22.868;2023-08-06T03:31:39;100073.91;;;21.64;100.00
63808;BME280;49961;43.970;22.868;2023-08-06T03:32:39;100008.53;;;21.19;100.00
63808;BME280;49961;43.970;22.868;2023-08-06T03:33:40;100090.34;;;21.60;100.00
63808;BME280;49961;43.970;22.868;2023-08-06T03:34:40;100020.06;;;21.21;100.00
63808;BME280;49961;43.970;22.868;2023-08-06T03:35:41;100070.38;;;21.52;100.00
63808;BME280;49961;43.970;22.868;2023-08-06T03:36:41;100093.66;;;21.64;100.00
63808;BME280;49961;43.970;22.868;2023-08-06T03:37:41;100088.00;;;21.64;100.00
63808;BME280;49961;43.970;22.868;2023-08-06T03:38:42;100039.28;;;21.23;100.00
63808;BME280;49961;43.970;22.868;2023-08-06T03:39:42;100004.22;;;21.07;100.00
63808;BME280;49961;43.970;22.868;2023-08-06T03:40:43;100092.09;;;21.63;100.00
63808;BME280;49961;43.970;22.868;2023-08-06T03:41:43;100082.38;;;21.64;100.00
63808;BME280;49961;43.970;22.868;2023-08-06T03:42:44;100089.03;;;21.61;100.00
63808;BME280;49961;43.970;22.868;2023-08-06T03:43:44;100080.81;;;21.63;100.00
63808;BME280;49961;43.970;22.868;2023-08-06T03:44:44;100083.63;;;21.63;100.00
63808;BME280;49961;43.970;22.868;2023-08-06T03:45:45;100087.47;;;21.65;100.00
63808;BME280;49961;43.970;22.868;2023-08-06T03:46:45;100082.63;;;21.60;100.00
63808;BME280;49961;43.970;22.868;2023-08-06T03:47:46;100031.06;;;21.19;100.00
63808;BME280;49961;43.970;22.868;2023-08-06T03:48:46;100076.97;;;21.60;100.00
63808;BME280;49961;43.970;22.868;2023-08-06T03:49:46;100078.25;;;21.65;100.00
63808;BME280;49961;43.970;22.868;2023-08-06T03:50:47;100074.91;;;21.66;100.00
63808;BME280;49961;43.970;22.868;2023-08-06T03:51:47;100078.25;;;21.65;100.00
63808;BME280;49961;43.970;22.868;2023-08-06T03:52:48;100016.97;;;21.25;100.00
63808;BME280;49961;43.970;22.868;2023-08-06T03:53:48;100078.22;;;21.70;100.00
63808;BME280;49961;43.970;22.868;2023-08-06T03:54:49;100069.25;;;21.72;100.00
63808;BME280;49961;43.970;22.868;2023-08-06T03:55:49;100071.06;;;21.75;100.00
63808;BME280;49961;43.970;22.868;2023-08-06T03:56:50;99995.13;;;21.36;100.00
63808;BME280;49961;43.970;22.868;2023-08-06T03:57:50;100035.47;;;21.61;100.00
63808;BME280;49961;43.970;22.868;2023-08-06T03:58:50;100061.25;;;21.81;100.00
63808;BME280;49961;43.970;22.868;2023-08-06T03:59:51;100043.91;;;21.66;100.00
63808;BME280;49961;43.970;22.868;2023-08-06T04:01:01;100065.63;;;21.82;100.00
63808;BME280;49961;43.970;22.868;2023-08-06T04:02:03;100053.84;;;21.78;100.00
63808;BME280;49961;43.970;22.868;2023-08-06T04:03:03;99971.59;;;21.28;100.00
63808;BME280;49961;43.970;22.868;2023-08-06T04:04:04;100071.22;;;21.88;100.00
63808;BME280;49961;43.970;22.868;2023-08-06T04:05:04;100070.41;;;21.93;100.00
63808;BME280;49961;43.970;22.868;2023-08-06T04:06:05;100070.66;;;21.95;100.00
63808;BME280;49961;43.970;22.868;2023-08-06T04:07:06;100062.47;;;21.91;100.00
63808;BME280;49961;43.970;22.868;2023-08-06T04:08:06;100065.06;;;21.89;100.00
63808;BME280;49961;43.970;22.868;2023-08-06T04:09:07;100061.72;;;21.85;100.00
63808;BME280;49961;43.970;22.868;2023-08-06T04:10:07;100061.00;;;21.85;100.00
63808;BME280;49961;43.970;22.868;2023-08-06T04:11:08;100064.81;;;21.87;100.00
63808;BME280;49961;43.970;22.868;2023-08-06T04:12:09;100068.91;;;21.86;100.00
63808;BME280;49961;43.970;22.868;2023-08-06T04:13:09;100069.69;;;21.87;100.00
63808;BME280;49961;43.970;22.868;2023-08-06T04:14:10;100036.75;;;21.60;100.00
63808;BME280;49961;43.970;22.868;2023-08-06T04:15:10;100077.63;;;21.88;100.00
63808;BME280;49961;43.970;22.868;2023-08-06T04:16:11;100077.34;;;21.92;100.00
63808;BME280;49961;43.970;22.868;2023-08-06T04:17:11;100071.19;;;21.93;100.00
63808;BME280;49961;43.970;22.868;2023-08-06T04:18:11;100057.19;;;21.77;100.00
63808;BME280;49961;43.970;22.868;2023-08-06T04:19:12;100016.81;;;21.52;100.00
63808;BME280;49961;43.970;22.868;2023-08-06T04:20:12;100084.78;;;21.95;100.00
63808;BME280;49961;43.970;22.868;2023-08-06T04:21:13;100078.38;;;21.89;100.00
63808;BME280;49961;43.970;22.868;2023-08-06T04:22:13;100094.78;;;21.90;100.00
63808;BME280;49961;43.970;22.868;2023-08-06T04:23:14;100094.03;;;21.90;100.00
63808;BME280;49961;43.970;22.868;2023-08-06T04:24:15;100063.63;;;21.72;100.00
63808;BME280;49961;43.970;22.868;2023-08-06T04:25:16;100003.03;;;21.38;100.00
63808;BME280;49961;43.970;22.868;2023-08-06T04:26:21;100097.88;;;21.92;100.00
63808;BME280;49961;43.970;22.868;2023-08-06T04:27:21;100102.97;;;21.94;100.00
63808;BME280;49961;43.970;22.868;2023-08-06T04:28:21;100031.13;;;21.54;100.00
63808;BME280;49961;43.970;22.868;2023-08-06T04:29:22;100087.31;;;21.98;100.00
63808;BME280;49961;43.970;22.868;2023-08-06T04:30:22;100093.97;;;22.01;100.00
63808;BME280;49961;43.970;22.868;2023-08-06T04:31:23;100041.84;;;21.72;100.00
63808;BME280;49961;43.970;22.868;2023-08-06T04:32:23;100030.56;;;21.67;100.00
63808;BME280;49961;43.970;22.868;2023-08-06T04:33:25;100087.50;;;22.06;100.00
63808;BME280;49961;43.970;22.868;2023-08-06T04:34:25;100090.81;;;22.10;100.00
63808;BME280;49961;43.970;22.868;2023-08-06T04:35:25;100018.06;;;21.57;100.00
63808;BME280;49961;43.970;22.868;2023-08-06T04:36:26;100088.47;;;22.14;100.00
63808;BME280;49961;43.970;22.868;2023-08-06T04:37:26;100083.06;;;22.16;100.00
63808;BME280;49961;43.970;22.868;2023-08-06T04:38:27;100083.38;;;22.12;100.00
63808;BME280;49961;43.970;22.868;2023-08-06T04:39:27;100070.78;;;22.13;100.00
63808;BME280;49961;43.970;22.868;2023-08-06T04:40:28;100016.66;;;21.80;100.00
63808;BME280;49961;43.970;22.868;2023-08-06T04:41:28;100061.03;;;22.14;100.00
63808;BME280;49961;43.970;22.868;2023-08-06T04:42:28;100073.03;;;22.20;100.00
63808;BME280;49961;43.970;22.868;2023-08-06T04:43:29;100085.75;;;22.32;100.00
63808;BME280;49961;43.970;22.868;2023-08-06T04:44:29;100092.88;;;22.39;100.00
63808;BME280;49961;43.970;22.868;2023-08-06T04:45:30;100094.16;;;22.43;100.00
63808;BME280;49961;43.970;22.868;2023-08-06T04:46:30;100096.72;;;22.41;100.00
63808;BME280;49961;43.970;22.868;2023-08-06T04:47:31;100102.88;;;22.45;100.00
63808;BME280;49961;43.970;22.868;2023-08-06T04:48:31;100060.22;;;22.19;100.00
63808;BME280;49961;43.970;22.868;2023-08-06T04:49:31;100104.41;;;22.46;100.00
63808;BME280;49961;43.970;22.868;2023-08-06T04:50:32;100098.47;;;22.50;100.00
63808;BME280;49961;43.970;22.868;2023-08-06T04:51:32;100104.66;;;22.48;100.00
63808;BME280;49961;43.970;22.868;2023-08-06T04:52:33;100100.53;;;22.49;100.00
63808;BME280;49961;43.970;22.868;2023-08-06T04:53:33;100040.03;;;22.10;100.00
63808;BME280;49961;43.970;22.868;2023-08-06T04:54:33;100105.66;;;22.51;100.00
63808;BME280;49961;43.970;22.868;2023-08-06T04:55:34;100085.47;;;22.36;100.00
63808;BME280;49961;43.970;22.868;2023-08-06T04:56:34;100110.75;;;22.52;100.00
63808;BME280;49961;43.970;22.868;2023-08-06T04:57:35;100101.28;;;22.50;100.00
63808;BME280;49961;43.970;22.868;2023-08-06T04:58:35;100118.41;;;22.57;100.00
63808;BME280;49961;43.970;22.868;2023-08-06T04:59:36;100045.69;;;22.10;100.00
63808;BME280;49961;43.970;22.868;2023-08-06T05:00:36;100043.38;;;22.08;100.00
63808;BME280;49961;43.970;22.868;2023-08-06T05:01:36;99999.94;;;21.87;100.00
63808;BME280;49961;43.970;22.868;2023-08-06T05:02:37;100094.31;;;22.56;100.00
63808;BME280;49961;43.970;22.868;2023-08-06T05:03:38;100110.66;;;22.63;100.00
63808;BME280;49961;43.970;22.868;2023-08-06T05:04:39;100104.25;;;22.63;100.00
63808;BME280;49961;43.970;22.868;2023-08-06T05:05:40;100061.91;;;22.33;100.00
63808;BME280;49961;43.970;22.868;2023-08-06T05:06:41;100106.56;;;22.64;100.00
63808;BME280;49961;43.970;22.868;2023-08-06T05:07:42;100099.09;;;22.67;100.00
63808;BME280;49961;43.970;22.868;2023-08-06T05:08:42;100104.19;;;22.68;100.00
63808;BME280;49961;43.970;22.868;2023-08-06T05:09:42;100093.16;;;22.70;100.00
63808;BME280;49961;43.970;22.868;2023-08-06T05:10:44;100052.13;;;22.34;100.00
63808;BME280;49961;43.970;22.868;2023-08-06T05:11:46;100106.56;;;22.64;100.00
63808;BME280;49961;43.970;22.868;2023-08-06T05:12:46;100112.22;;;22.64;100.00
63808;BME280;49961;43.970;22.868;2023-08-06T05:13:47;100113.66;;;22.71;100.00
63808;BME280;49961;43.970;22.868;2023-08-06T05:14:47;100115.50;;;22.68;100.00
63808;BME280;49961;43.970;22.868;2023-08-06T05:15:47;100123.16;;;22.73;100.00
63808;BME280;49961;43.970;22.868;2023-08-06T05:16:48;100123.41;;;22.75;100.00
63808;BME280;49961;43.970;22.868;2023-08-06T05:17:48;100118.50;;;22.76;100.00
63808;BME280;49961;43.970;22.868;2023-08-06T05:18:49;100110.28;;;22.78;100.00
63808;BME280;49961;43.970;22.868;2023-08-06T05:19:49;100111.81;;;22.79;100.00
63808;BME280;49961;43.970;22.868;2023-08-06T05:20:50;100110.28;;;22.78;100.00
63808;BME280;49961;43.970;22.868;2023-08-06T05:21:50;100104.63;;;22.78;100.00